createdAt,value
2018-07-15T00:00:16.242Z,17.20
2018-07-15T00:02:44.689Z,17.20
2018-07-15T00:05:13.173Z,17.20
2018-07-15T00:10:09.771Z,17.20
2018-07-15T00:12:38.231Z,17.20
2018-07-15T00:15:07.231Z,17.20
2018-07-15T00:17:35.689Z,17.30
2018-07-15T00:20:04.209Z,17.20
2018-07-15T00:22:32.698Z,17.10
2018-07-15T00:25:01.158Z,17.00
2018-07-15T00:27:29.638Z,17.00
2018-07-15T00:29:58.165Z,17.00
2018-07-15T00:32:26.613Z,16.90
2018-07-15T00:34:55.050Z,17.00
2018-07-15T00:37:23.533Z,17.00
2018-07-15T00:39:51.944Z,17.00
2018-07-15T00:42:20.389Z,17.10
2018-07-15T00:47:16.935Z,17.10
2018-07-15T00:49:45.397Z,17.10
2018-07-15T00:52:13.877Z,17.10
2018-07-15T00:54:42.309Z,17.10
2018-07-15T00:57:10.762Z,17.10
2018-07-15T00:59:39.193Z,17.10
2018-07-15T01:02:07.678Z,17.00
2018-07-15T01:04:36.094Z,17.00
2018-07-15T01:09:32.738Z,16.90
2018-07-15T01:12:01.191Z,16.80
2018-07-15T01:14:29.605Z,16.70
2018-07-15T01:16:58.025Z,16.70
2018-07-15T01:19:26.481Z,16.80
2018-07-15T01:21:54.970Z,16.80
2018-07-15T01:24:23.420Z,16.70
2018-07-15T01:29:20.236Z,16.70
2018-07-15T01:31:48.689Z,16.60
2018-07-15T01:34:17.097Z,16.60
2018-07-15T01:36:45.529Z,16.60
2018-07-15T01:39:13.987Z,16.60
2018-07-15T01:41:42.561Z,16.60
2018-07-15T01:44:11.036Z,16.60
2018-07-15T01:46:39.473Z,16.60
2018-07-15T01:49:07.925Z,16.60
2018-07-15T01:51:36.337Z,16.50
2018-07-15T01:54:04.819Z,16.50
2018-07-15T01:56:33.233Z,16.50
2018-07-15T01:59:01.674Z,16.50
2018-07-15T02:01:30.097Z,16.40
2018-07-15T02:03:58.537Z,16.40
2018-07-15T02:06:27.094Z,16.30
2018-07-15T02:08:55.598Z,16.30
2018-07-15T02:11:24.062Z,16.30
2018-07-15T02:13:52.506Z,16.20
2018-07-15T02:16:20.937Z,16.20
2018-07-15T02:18:49.370Z,16.10
2018-07-15T02:21:17.781Z,16.00
2018-07-15T02:23:46.290Z,16.00
2018-07-15T02:26:14.738Z,15.90
2018-07-15T02:28:43.217Z,15.80
2018-07-15T02:31:11.675Z,15.80
2018-07-15T02:33:40.167Z,15.80
2018-07-15T02:38:36.761Z,15.80
2018-07-15T02:41:05.279Z,15.80
2018-07-15T02:43:33.754Z,15.80
2018-07-15T02:46:02.234Z,15.80
2018-07-15T02:48:30.686Z,15.80
2018-07-15T02:50:59.166Z,15.80
2018-07-15T02:53:27.613Z,15.60
2018-07-15T02:55:56.110Z,15.60
2018-07-15T02:58:24.579Z,15.50
2018-07-15T03:00:53.051Z,15.50
2018-07-15T03:03:21.502Z,15.40
2018-07-15T03:05:50.013Z,15.40
2018-07-15T03:08:18.502Z,15.40
2018-07-15T03:10:47.002Z,15.40
2018-07-15T03:13:15.482Z,15.40
2018-07-15T03:15:44.115Z,15.40
2018-07-15T03:18:12.609Z,15.30
2018-07-15T03:23:09.218Z,15.40
2018-07-15T03:25:37.673Z,15.20
2018-07-15T03:28:06.133Z,15.20
2018-07-15T03:30:34.565Z,15.20
2018-07-15T03:33:02.994Z,15.10
2018-07-15T03:35:31.462Z,15.10
2018-07-15T03:40:28.026Z,15.10
2018-07-15T03:42:56.465Z,15.10
2018-07-15T03:45:24.967Z,15.20
2018-07-15T03:50:21.594Z,15.10
2018-07-15T03:52:50.017Z,15.10
2018-07-15T03:55:18.480Z,15.10
2018-07-15T04:00:15.293Z,15.10
2018-07-15T04:02:43.768Z,15.00
2018-07-15T04:05:12.237Z,15.00
2018-07-15T04:07:40.716Z,15.00
2018-07-15T04:10:09.156Z,15.00
2018-07-15T04:12:37.591Z,15.00
2018-07-15T04:15:06.046Z,15.00
2018-07-15T04:17:34.477Z,15.10
2018-07-15T04:20:02.930Z,15.20
2018-07-15T04:22:31.410Z,15.20
2018-07-15T04:24:59.892Z,15.20
2018-07-15T04:27:28.402Z,15.30
2018-07-15T04:29:56.914Z,15.30
2018-07-15T04:32:25.405Z,15.30
2018-07-15T04:34:53.909Z,15.40
2018-07-15T04:37:22.377Z,15.40
2018-07-15T04:39:50.835Z,15.50
2018-07-15T04:42:19.317Z,15.50
2018-07-15T04:44:47.765Z,15.60
2018-07-15T04:47:16.253Z,15.60
2018-07-15T04:52:12.886Z,15.70
2018-07-15T04:54:41.349Z,15.80
2018-07-15T04:57:09.850Z,15.80
2018-07-15T04:59:38.310Z,15.80
2018-07-15T05:02:06.876Z,15.80
2018-07-15T05:04:35.312Z,15.90
2018-07-15T05:09:31.941Z,15.90
2018-07-15T05:12:00.449Z,16.00
2018-07-15T05:16:57.057Z,16.20
2018-07-15T05:19:25.526Z,16.20
2018-07-15T05:21:54.009Z,16.20
2018-07-15T05:24:22.442Z,16.20
2018-07-15T05:26:51.005Z,16.20
2018-07-15T05:29:19.417Z,16.30
2018-07-15T05:31:47.835Z,16.20
2018-07-15T05:34:16.261Z,16.40
2018-07-15T05:36:44.714Z,16.60
2018-07-15T05:39:13.134Z,16.70
2018-07-15T05:44:09.667Z,16.90
2018-07-15T05:46:38.128Z,17.00
2018-07-15T05:49:06.570Z,17.10
2018-07-15T05:51:35.026Z,17.20
2018-07-15T05:54:03.533Z,17.30
2018-07-15T05:56:31.974Z,17.50
2018-07-15T06:01:28.538Z,17.80
2018-07-15T06:03:56.957Z,18.00
2018-07-15T06:06:25.410Z,18.00
2018-07-15T06:08:53.817Z,18.10
2018-07-15T06:11:22.314Z,18.20
2018-07-15T06:13:50.718Z,18.40
2018-07-15T06:18:47.289Z,18.70
2018-07-15T06:21:15.813Z,18.80
2018-07-15T06:23:44.242Z,19.10
2018-07-15T06:26:12.726Z,19.20
2018-07-15T06:28:41.218Z,19.40
2018-07-15T06:31:09.718Z,19.60
2018-07-15T06:33:38.210Z,19.90
2018-07-15T06:36:06.710Z,20.20
2018-07-15T06:38:35.172Z,20.40
2018-07-15T06:41:03.675Z,20.50
2018-07-15T06:43:32.154Z,20.70
2018-07-15T06:46:00.633Z,20.90
2018-07-15T06:48:29.097Z,21.10
2018-07-15T06:50:57.590Z,21.10
2018-07-15T06:53:26.049Z,21.10
2018-07-15T06:55:54.526Z,21.10
2018-07-15T06:58:22.978Z,21.50
2018-07-15T07:00:51.569Z,21.80
2018-07-15T07:03:20.038Z,21.80
2018-07-15T07:05:48.514Z,21.80
2018-07-15T07:08:16.993Z,22.00
2018-07-15T07:10:45.428Z,21.80
2018-07-15T07:13:13.909Z,21.80
2018-07-15T07:15:42.362Z,21.60
2018-07-15T07:18:10.974Z,21.70
2018-07-15T07:20:39.467Z,21.80
2018-07-15T07:23:07.981Z,22.00
2018-07-15T07:25:36.633Z,22.10
2018-07-15T07:28:05.103Z,22.40
2018-07-15T07:30:33.529Z,22.50
2018-07-15T07:33:01.978Z,22.50
2018-07-15T07:35:30.452Z,22.80
2018-07-15T07:37:58.873Z,22.80
2018-07-15T07:40:27.361Z,23.00
2018-07-15T07:42:55.830Z,23.10
2018-07-15T07:45:24.269Z,23.00
2018-07-15T07:47:52.705Z,23.00
2018-07-15T07:50:21.126Z,23.30
2018-07-15T07:52:49.581Z,22.90
2018-07-15T07:55:17.999Z,22.50
2018-07-15T08:00:14.551Z,23.10
2018-07-15T08:05:11.113Z,23.20
2018-07-15T08:07:39.642Z,23.30
2018-07-15T08:10:08.102Z,23.50
2018-07-15T08:12:36.537Z,23.70
2018-07-15T08:15:05.023Z,23.90
2018-07-15T08:17:33.499Z,23.80
2018-07-15T08:20:01.939Z,23.80
2018-07-15T08:22:30.462Z,23.70
2018-07-15T08:24:58.860Z,24.10
2018-07-15T08:27:27.306Z,24.20
2018-07-15T08:30:07.014Z,24.20
2018-07-15T08:32:35.462Z,24.10
2018-07-15T08:35:03.974Z,24.50
2018-07-15T08:37:32.426Z,24.70
2018-07-15T08:40:00.866Z,24.50
2018-07-15T08:42:29.327Z,24.50
2018-07-15T08:44:57.751Z,24.20
2018-07-15T08:47:26.202Z,24.10
2018-07-15T08:49:54.638Z,24.20
2018-07-15T08:52:23.081Z,24.00
2018-07-15T08:57:19.644Z,24.50
2018-07-15T08:59:48.069Z,24.80
2018-07-15T09:02:16.532Z,24.50
2018-07-15T09:04:44.977Z,24.60
2018-07-15T09:12:09.765Z,24.50
2018-07-15T09:14:38.198Z,24.20
2018-07-15T09:17:06.643Z,24.20
2018-07-15T09:19:35.080Z,24.10
2018-07-15T09:22:03.536Z,24.40
2018-07-15T09:24:32.702Z,24.70
2018-07-15T09:27:01.135Z,24.90
2018-07-15T09:29:29.559Z,24.90
2018-07-15T09:31:58.021Z,24.60
2018-07-15T09:34:26.485Z,25.00
2018-07-15T09:36:54.986Z,25.10
2018-07-15T09:39:23.418Z,25.50
2018-07-15T09:41:51.901Z,25.90
2018-07-15T09:44:20.345Z,26.20
2018-07-15T09:46:48.885Z,26.50
2018-07-15T09:49:17.310Z,27.00
2018-07-15T09:54:13.905Z,26.40
2018-07-15T09:56:42.355Z,26.30
2018-07-15T10:04:07.121Z,26.80
2018-07-15T10:06:35.570Z,27.00
2018-07-15T10:09:04.974Z,27.20
2018-07-15T10:11:33.421Z,27.30
2018-07-15T10:14:01.861Z,27.50
2018-07-15T10:16:30.274Z,27.80
2018-07-15T10:18:58.783Z,27.40
2018-07-15T10:21:27.154Z,27.20
2018-07-15T10:23:55.641Z,27.40
2018-07-15T10:26:24.083Z,27.80
2018-07-15T10:28:52.498Z,28.50
2018-07-15T10:31:20.909Z,28.70
2018-07-15T10:33:49.342Z,29.20
2018-07-15T10:36:17.782Z,28.90
2018-07-15T10:38:46.193Z,29.40
2018-07-15T10:41:14.658Z,29.80
2018-07-15T10:43:43.153Z,29.80
2018-07-15T10:46:11.567Z,30.10
2018-07-15T10:48:40.014Z,30.80
2018-07-15T10:51:08.674Z,31.00
2018-07-15T10:53:37.179Z,31.10
2018-07-15T10:56:05.637Z,31.70
2018-07-15T10:58:34.244Z,31.80
2018-07-15T11:01:02.734Z,32.80
2018-07-15T11:03:31.255Z,32.60
2018-07-15T11:05:59.715Z,33.30
2018-07-15T11:08:28.189Z,34.10
2018-07-15T11:10:56.629Z,33.70
2018-07-15T11:13:25.183Z,33.60
2018-07-15T11:15:53.587Z,33.10
2018-07-15T11:18:22.065Z,32.80
2018-07-15T11:20:50.531Z,33.90
2018-07-15T11:23:19.037Z,33.60
2018-07-15T11:25:47.506Z,33.60
2018-07-15T11:28:16.018Z,33.40
2018-07-15T11:33:12.674Z,34.10
2018-07-15T11:38:09.307Z,34.00
2018-07-15T11:40:37.786Z,33.30
2018-07-15T11:43:06.275Z,32.90
2018-07-15T11:45:34.744Z,33.70
2018-07-15T11:48:03.269Z,33.70
2018-07-15T11:50:31.733Z,31.70
2018-07-15T11:55:28.350Z,31.20
2018-07-15T11:57:56.846Z,31.70
2018-07-15T12:00:25.309Z,32.30
2018-07-15T12:02:53.814Z,32.40
2018-07-15T12:05:22.322Z,33.20
2018-07-15T12:07:50.767Z,32.60
2018-07-15T12:10:19.245Z,31.60
2018-07-15T12:12:47.716Z,31.60
2018-07-15T12:15:16.190Z,32.50
2018-07-15T12:17:44.658Z,32.30
2018-07-15T12:20:13.173Z,31.60
2018-07-15T12:22:41.716Z,31.90
2018-07-15T12:25:10.201Z,31.10
2018-07-15T12:27:38.674Z,31.70
2018-07-15T12:30:07.302Z,32.50
2018-07-15T12:35:03.886Z,30.40
2018-07-15T12:37:32.325Z,31.10
2018-07-15T12:40:00.773Z,30.90
2018-07-15T12:42:29.194Z,30.60
2018-07-15T12:44:57.638Z,30.20
2018-07-15T12:47:26.067Z,29.90
2018-07-15T12:54:50.846Z,30.20
2018-07-15T12:57:19.305Z,30.90
2018-07-15T12:59:47.778Z,30.90
2018-07-15T13:02:16.215Z,30.50
2018-07-15T13:04:44.680Z,30.20
2018-07-15T13:07:13.125Z,30.20
2018-07-15T13:09:41.641Z,29.40
2018-07-15T13:12:10.039Z,29.60
2018-07-15T13:14:38.529Z,29.70
2018-07-15T13:22:03.297Z,28.50
2018-07-15T13:24:31.769Z,28.60
2018-07-15T13:27:00.217Z,28.50
2018-07-15T13:29:28.666Z,28.20
2018-07-15T13:31:57.094Z,27.80
2018-07-15T13:34:25.550Z,27.40
2018-07-15T13:39:22.069Z,27.40
2018-07-15T13:41:50.540Z,27.00
2018-07-15T13:44:18.974Z,26.60
2018-07-15T13:46:47.443Z,26.50
2018-07-15T13:49:15.923Z,26.40
2018-07-15T13:54:12.545Z,25.80
2018-07-15T13:56:41.034Z,25.60
2018-07-15T13:59:09.495Z,25.40
2018-07-15T14:01:38.025Z,25.20
2018-07-15T14:04:06.564Z,24.70
2018-07-15T14:06:35.030Z,23.90
2018-07-15T14:09:03.745Z,23.10
2018-07-15T14:11:32.226Z,22.80
2018-07-15T14:14:00.677Z,22.70
2018-07-15T14:16:29.137Z,22.50
2018-07-15T14:18:57.615Z,22.70
2018-07-15T14:21:26.201Z,22.80
2018-07-15T14:26:22.757Z,22.50
2018-07-15T14:28:51.206Z,22.30
2018-07-15T14:31:19.672Z,22.40
2018-07-15T14:33:48.079Z,22.50
2018-07-15T14:36:16.516Z,22.40
2018-07-15T14:38:44.942Z,22.00
2018-07-15T14:41:13.389Z,21.70
2018-07-15T14:43:41.817Z,21.40
2018-07-15T14:46:10.277Z,21.00
2018-07-15T14:48:38.837Z,20.90
2018-07-15T14:53:35.498Z,20.70
2018-07-15T14:58:32.113Z,20.60
2018-07-15T15:01:00.579Z,20.50
2018-07-15T15:03:29.034Z,20.30
2018-07-15T15:05:57.492Z,20.30
2018-07-15T15:08:25.905Z,20.20
2018-07-15T15:10:54.361Z,20.30
2018-07-15T15:13:22.793Z,20.30
2018-07-15T15:15:51.233Z,20.20
2018-07-15T15:18:19.658Z,20.10
2018-07-15T15:20:48.128Z,19.90
2018-07-15T15:23:16.584Z,19.60
2018-07-15T15:25:45.380Z,19.30
2018-07-15T15:28:13.785Z,19.30
2018-07-15T15:30:42.219Z,19.10
2018-07-15T15:33:10.646Z,19.00
2018-07-15T15:35:39.129Z,19.00
2018-07-15T15:38:07.709Z,18.90
2018-07-15T15:40:36.171Z,18.80
2018-07-15T15:43:04.702Z,18.40
2018-07-15T15:45:33.173Z,18.40
2018-07-15T15:48:01.625Z,18.30
2018-07-15T15:50:30.106Z,18.30
2018-07-15T15:52:58.545Z,18.30
2018-07-15T15:55:26.991Z,18.30
2018-07-15T15:57:55.436Z,18.30
2018-07-15T16:00:23.927Z,18.10
2018-07-15T16:02:52.412Z,18.10
2018-07-15T16:05:20.870Z,17.80
2018-07-15T16:07:49.309Z,17.90
2018-07-15T16:10:17.745Z,18.00
2018-07-15T16:12:46.221Z,18.00
2018-07-15T16:15:14.646Z,18.00
2018-07-15T16:17:43.140Z,18.00
2018-07-15T16:20:11.587Z,18.00
2018-07-15T16:25:08.371Z,18.00
2018-07-15T16:27:36.827Z,17.90
2018-07-15T16:30:05.503Z,17.90
2018-07-15T16:32:33.973Z,17.90
2018-07-15T16:35:02.446Z,17.90
2018-07-15T16:37:30.986Z,17.90
2018-07-15T16:39:59.462Z,17.90
2018-07-15T16:42:27.958Z,17.80
2018-07-15T16:44:56.433Z,17.60
2018-07-15T16:47:24.910Z,17.50
2018-07-15T16:49:53.495Z,17.50
2018-07-15T16:52:21.971Z,17.50
2018-07-15T16:54:50.437Z,17.50
2018-07-15T16:57:18.929Z,17.40
2018-07-15T16:59:47.386Z,17.40
2018-07-15T17:02:15.882Z,17.40
2018-07-15T17:04:44.356Z,17.30
2018-07-15T17:07:12.862Z,17.30
2018-07-15T17:09:41.326Z,17.20
2018-07-15T17:12:09.900Z,17.20
2018-07-15T17:14:38.378Z,17.10
2018-07-15T17:17:06.939Z,17.00
2018-07-15T17:24:32.362Z,17.00
2018-07-15T17:27:00.841Z,17.10
2018-07-15T17:29:29.278Z,17.10
2018-07-15T17:31:57.735Z,17.20
2018-07-15T17:34:26.162Z,17.20
2018-07-15T17:36:54.673Z,17.20
2018-07-15T17:39:23.134Z,17.10
2018-07-15T17:41:51.607Z,17.10
2018-07-15T17:44:20.160Z,17.00
2018-07-15T17:46:48.626Z,17.10
2018-07-15T17:49:17.115Z,17.20
2018-07-15T17:51:45.595Z,17.10
2018-07-15T17:54:14.369Z,17.10
2018-07-15T17:56:43.006Z,16.80
2018-07-15T18:01:40.195Z,16.70
2018-07-15T18:04:08.674Z,16.80
2018-07-15T18:06:37.120Z,16.90
2018-07-15T18:09:06.733Z,17.10
2018-07-15T18:11:35.159Z,17.00
2018-07-15T18:14:03.646Z,16.90
2018-07-15T18:16:32.150Z,16.90
2018-07-15T18:19:00.597Z,17.00
2018-07-15T18:23:57.253Z,17.10
2018-07-15T18:26:26.021Z,17.00
2018-07-15T18:28:54.510Z,16.80
2018-07-15T18:33:51.133Z,16.90
2018-07-15T18:36:19.629Z,16.80
2018-07-15T18:38:48.099Z,16.80
2018-07-15T18:41:16.589Z,16.80
2018-07-15T18:43:45.309Z,16.80
2018-07-15T18:46:13.777Z,16.80
2018-07-15T18:48:42.277Z,16.90
2018-07-15T18:51:10.753Z,16.90
2018-07-15T18:53:39.264Z,16.90
2018-07-15T18:56:07.749Z,16.90
2018-07-15T18:58:36.295Z,16.90
2018-07-15T19:01:04.766Z,16.80
2018-07-15T19:03:33.266Z,16.80
2018-07-15T19:06:01.788Z,16.80
2018-07-15T19:08:30.231Z,16.80
2018-07-15T19:10:58.695Z,16.80
2018-07-15T19:13:27.247Z,16.70
2018-07-15T19:15:55.707Z,16.70
2018-07-15T19:18:24.235Z,16.70
2018-07-15T19:23:20.819Z,16.60
2018-07-15T19:25:49.272Z,16.60
2018-07-15T19:28:17.706Z,16.60
2018-07-15T19:30:46.201Z,16.50
2018-07-15T19:33:14.658Z,16.40
2018-07-15T19:35:43.114Z,16.30
2018-07-15T19:38:11.544Z,16.10
2018-07-15T19:40:40.018Z,16.10
2018-07-15T19:43:08.454Z,16.10
2018-07-15T19:45:36.905Z,16.10
2018-07-15T19:48:05.373Z,16.00
2018-07-15T19:50:33.854Z,16.00
2018-07-15T19:53:02.275Z,16.00
2018-07-15T19:55:30.714Z,16.00
2018-07-15T20:00:27.293Z,16.10
2018-07-15T20:02:55.717Z,16.10
2018-07-15T20:05:24.165Z,16.00
2018-07-15T20:07:52.573Z,16.00
2018-07-15T20:10:21.037Z,16.00
2018-07-15T20:12:49.461Z,16.00
2018-07-15T20:15:17.894Z,16.00
2018-07-15T20:17:46.359Z,15.90
2018-07-15T20:20:14.806Z,15.90
2018-07-15T20:22:43.308Z,15.90
2018-07-15T20:25:11.789Z,15.90
2018-07-15T20:27:41.166Z,15.80
2018-07-15T20:30:09.634Z,15.80
2018-07-15T20:32:38.117Z,15.90
2018-07-15T20:37:34.829Z,15.90
2018-07-15T20:40:03.379Z,15.80
2018-07-15T20:42:31.830Z,15.70
2018-07-15T20:45:00.314Z,15.60
2018-07-15T20:47:28.773Z,15.70
2018-07-15T20:49:57.256Z,15.70
2018-07-15T20:52:25.707Z,15.80
2018-07-15T20:54:54.204Z,15.80
2018-07-15T20:57:22.669Z,15.80
2018-07-15T20:59:51.116Z,15.70
2018-07-15T21:02:19.578Z,15.60
2018-07-15T21:04:48.058Z,15.60
2018-07-15T21:09:44.686Z,15.60
2018-07-15T21:12:13.138Z,15.60
2018-07-15T21:14:41.630Z,15.60
2018-07-15T21:17:10.088Z,15.70
2018-07-15T21:19:38.558Z,15.80
2018-07-15T21:22:07.025Z,15.80
2018-07-15T21:24:35.546Z,15.80
2018-07-15T21:27:04.117Z,15.80
2018-07-15T21:29:32.586Z,15.80
2018-07-15T21:32:01.046Z,15.80
2018-07-15T21:34:29.533Z,15.70
2018-07-15T21:36:58.006Z,15.60
2018-07-15T21:39:26.491Z,15.60
2018-07-15T21:41:55.015Z,15.50
2018-07-15T21:44:23.532Z,15.50
2018-07-15T21:46:52.244Z,15.50
2018-07-15T21:49:20.716Z,15.50
2018-07-15T21:51:49.182Z,15.50
2018-07-15T21:56:45.788Z,15.60
2018-07-15T21:59:14.250Z,15.60
2018-07-15T22:01:43.954Z,15.60
2018-07-15T22:04:12.823Z,15.70
2018-07-15T22:06:52.554Z,15.70
2018-07-15T22:11:55.242Z,15.70
2018-07-15T22:14:23.765Z,15.70
2018-07-15T22:16:52.269Z,15.70
2018-07-15T22:19:20.726Z,15.70
2018-07-15T22:21:49.201Z,15.80
2018-07-15T22:24:17.740Z,15.80
2018-07-15T22:26:46.197Z,15.80
2018-07-15T22:29:14.684Z,15.80
2018-07-15T22:31:43.152Z,15.80
2018-07-15T22:34:11.616Z,15.80
2018-07-15T22:36:40.099Z,15.80
2018-07-15T22:39:08.576Z,15.80
2018-07-15T22:41:37.125Z,15.80
2018-07-15T22:44:05.900Z,15.80
2018-07-15T22:51:30.726Z,15.80
2018-07-15T22:53:59.210Z,15.80
2018-07-15T22:58:55.874Z,15.70
2018-07-15T23:06:21.152Z,15.70
2018-07-15T23:08:49.644Z,15.70
2018-07-15T23:11:18.124Z,15.60
2018-07-15T23:13:46.618Z,15.70
2018-07-15T23:16:15.079Z,15.70
2018-07-15T23:18:43.584Z,15.70
2018-07-15T23:21:12.130Z,15.70
2018-07-15T23:23:40.649Z,15.70
2018-07-15T23:26:09.189Z,15.70
2018-07-15T23:28:37.656Z,15.70
2018-07-15T23:31:06.121Z,15.70
2018-07-15T23:36:02.782Z,15.60
2018-07-15T23:38:31.273Z,15.50
2018-07-15T23:40:59.767Z,15.40
2018-07-15T23:43:28.269Z,15.40
2018-07-15T23:45:56.750Z,15.40
2018-07-15T23:48:25.241Z,15.40
2018-07-15T23:50:53.722Z,15.40
2018-07-15T23:53:22.221Z,15.50
2018-07-15T23:55:50.682Z,15.50
2018-07-15T23:58:19.193Z,15.50
